ADDS METAR Data INFO
IDs: Format: Raw Decoded Include TAF

Data at: 1338 UTC 25 Feb 2018

KHRO 251253Z AUTO 14003KT 10SM CLR M01/M02 A3006 RMK AO2 SLP183 T10111017 PNO $
KHRO 251153Z AUTO 00000KT 10SM CLR M01/M02 A3003 RMK AO2 SLP171 6//// 7//// T10061017 10028 21006 53006 PNO $
KHRO 251053Z AUTO 29004KT 10SM CLR 02/M01 A3001 RMK AO2 SLP161 T00171011 PNO $
KHRO 250953Z AUTO 26004KT 10SM CLR 01/M01 A3000 RMK AO2 SLP159 T00061011 PNO $
KHRO 250853Z AUTO 30004KT 10SM CLR 02/M01 A3001 RMK AO2 SLP163 6//// T00221011 50002 PNO $
KHRO 250753Z AUTO 00000KT 10SM CLR 02/00 A3002 RMK AO2 SLP166 T00170000 PNO $
KHRO 250653Z AUTO 32004KT 10SM CLR 02/01 A3002 RMK AO2 SLP166 T00220006 PNO $
KHRO 250553Z AUTO 31005KT 10SM CLR 03/01 A3000 RMK AO2 SLP163 6//// T00280011 10139 20028 401670028 51031 PNO $
KHRO 250505Z AUTO 30007KT 10SM SCT019 04/02 A2998 RMK AO2 T00390017 PNO $
KHRO 250453Z AUTO 31008KT 10SM BKN019 04/02 A2998 RMK AO2 SLP152 T00390017 PNO $
KHRO 250353Z AUTO 30010G22KT 10SM FEW022 05/02 A2995 RMK AO2 SLP141 T00500017 PNO $
KHRO 250253Z AUTO 29011G22KT 10SM FEW021 SCT027 07/03 A2991 RMK AO2 PK WND 30026/0225 SLP128 6//// T00670033 51056 PNO $
KHRO 250153Z AUTO 28012G18KT 10SM BKN022 08/06 A2986 RMK AO2 PK WND 32030/0137 SLP111 T00830056 PNO $
KHRO 250053Z AUTO 29008G16KT 10SM BKN016 BKN023 12/09 A2979 RMK AO2 SLP085 T01170094 PNO $
KHRO 242353Z AUTO 28010G18KT 10SM BKN018 OVC027 14/12 A2974 RMK AO2 SLP066 6//// T01390117 10167 20106 53019 PNO $
KHRO 242302Z AUTO 27010G19KT 10SM BKN022 OVC031 15/13 A2969 RMK AO2 T01500128 PNO $
KHRO 242253Z AUTO 27012G21KT 10SM SCT020 BKN031 16/13 A2969 RMK AO2 SLP050 T01560133 PNO $
KHRO 242202Z AUTO VRB03KT 10SM BKN027 16/14 A2967 RMK AO2 T01560144 PNO $
KHRO 242153Z AUTO 00000KT 10SM FEW024 SCT029 BKN055 15/14 A2967 RMK AO2 RAE02 SLP043 T01500144 PNO $
KHRO 242053Z AUTO 15009KT 10SM -RA BKN043 OVC065 13/13 A2968 RMK AO2 LTG DSNT ALQDS TSE05B22E37 SLP047 6//// T01280128 58011 PNO $
KHRO 242043Z AUTO 13007KT 9SM VCTS -RA BKN041 OVC085 12/12 A2968 RMK AO2 LTG DSNT ALQDS TSE05B22E37 T01220122 PNO $
KHRO 242022Z AUTO 17005KT 3SM TSRA BR SCT055 BKN075 OVC095 12/12 A2969 RMK AO2 LTG DSNT NE-S TSE05B22 T01220122 PNO $
KHRO 242018Z AUTO 12007KT 2SM VCTS RA BR BKN060 OVC080 12/12 A2967 RMK AO2 LTG DSNT NE-S TSE05 PRESFR T01220122 PNO $
KHRO 242010Z AUTO 00000KT 1SM +RA BR OVC049 13/13 A2969 RMK AO2 LTG DSNT ALQDS TSE05 PRESFR T01280128 PNO $
KHRO 242000Z AUTO 18003KT 1 1/2SM +TSRA BR BKN043 BKN070 OVC095 12/12 A2971 RMK AO2 LTG DSNT ALQDS T01220122 PNO $
KHRO 241953Z AUTO 25003KT 1 1/2SM +TSRA BR BKN027 BKN070 OVC095 12/12 A2972 RMK AO2 LTG DSNT ALQDS TSB50 SLP061 T01220122 PNO $
KHRO 241944Z AUTO VRB04KT 1 1/4SM VCTS +RA BR OVC016 12/12 A2972 RMK AO2 LTG DSNT ALQDS T01220122 PNO $
KHRO 241937Z AUTO 30011G21KT 1SM VCTS +RA BR VV006 12/12 A2976 RMK AO2 LTG DSNT ALQDS PRESRR T01220117 PNO $
KHRO 241934Z AUTO 30014G21KT 3/4SM VCTS RA BR VV003 12/12 A2976 RMK AO2 LTG DSNT ALQDS PRESRR T01170117 PNO $
KHRO 241929Z AUTO 29009KT 1/4SM VCTS RA FG VV002 12/12 A2974 RMK AO2 LTG DSNT SW-N PRESRR T01220122 PNO $
KHRO 241853Z AUTO 09004KT 1/4SM -RA FG VV002 12/12 A2971 RMK AO2 LTG DSNT W SLP059 T01220122 PNO $
KHRO 241753Z AUTO 13011KT 1/4SM RA FG VV002 11/11 A2978 RMK AO2 SLP083 6//// T01060106 10106 20083 58044 PNO $
KHRO 241653Z AUTO 13005KT 1/4SM -RA FG VV002 11/11 A2982 RMK AO2 RAB11 SLP097 T01060106 PNO $
KHRO 241553Z AUTO 15007KT M1/4SM FG VV002 10/10 A2988 RMK AO2 SLP117 T01000100 PNO $
KHRO 241453Z AUTO 14004KT 1/4SM FG VV002 09/09 A2992 RMK AO2 RAB03E12 SLP130 6//// T00940094 58012 PNO $
KHRO 241353Z AUTO 14007KT 1/4SM FG VV002 09/09 A2993 RMK AO2 SLP136 T00890089 PNO $
KHRO 241253Z AUTO 14005KT 1/4SM FG VV002 09/09 A2994 RMK AO2 SLP141 T00890089 PNO $
KHRO 241220Z AUTO 14004KT 1/2SM FG BKN002 OVC028 08/08 A2995 RMK AO2 T00830083 PNO $
KHRO 241210Z AUTO 00000KT 1 3/4SM BR BKN002 BKN015 OVC036 09/09 A2996 RMK AO2 T00890089 PNO $
KHRO 241153Z AUTO 14003KT 4SM BR FEW002 BKN015 OVC044 09/09 A2995 RMK AO2 RAE27 SLP143 6//// 7//// T00890089 10094 20078 50002 PNO $
KHRO 241150Z AUTO 14003KT 7SM FEW002 OVC015 09/09 A2995 RMK AO2 RAE27 PNO $
KHRO 241116Z AUTO 00000KT 5SM -RA BR FEW006 OVC014 09/09 A2996 RMK AO2 T00890089 PNO $
KHRO 241104Z AUTO 04003KT 2SM -RA BR SCT004 OVC015 09/09 A2994 RMK AO2 T00890089 PNO $
KHRO 241053Z AUTO 33003KT 1 3/4SM -RA BR BKN004 OVC015 09/09 A2996 RMK AO2 SLP144 T00890089 PNO $
KHRO 241043Z AUTO 32004KT 1 3/4SM RA BR BKN003 OVC015 09/09 A2995 RMK AO2 T00890089 PNO $
KHRO 241033Z AUTO 33004KT 4SM -RA BR BKN003 BKN008 OVC015 09/09 A2995 RMK AO2 T00890089 PNO $
KHRO 241021Z AUTO 32003KT 6SM -RA BR SCT003 OVC017 09/09 A2996 RMK AO2 T00890089 PNO $
KHRO 240953Z AUTO 05003KT 6SM -RA BR OVC019 09/09 A2995 RMK AO2 RAB0857 SLP140 T00890089 PNO $
KHRO 240924Z AUTO 05004KT 3SM -RA BR FEW003 SCT011 OVC019 09/09 A2997 RMK AO2 LTG DSNT NE RAB0857 T00890089 PNO $
KHRO 240918Z AUTO 07005KT 2 1/2SM RA BR SCT002 BKN011 OVC019 09/09 A2996 RMK AO2 LTG DSNT N AND NE RAB0857 T00890089 PNO $
KHRO 240911Z AUTO 03007KT 2 1/2SM -RA BR SCT002 BKN008 OVC013 09/09 A2997 RMK AO2 LTG DSNT N AND NE RAB0857 T00890089 PNO $
KHRO 240901Z AUTO 31008KT 1SM -RA BR VV002 09/09 A2998 RMK AO2 LTG DSNT N AND NE RAB0857 T00890089 PNO $
KHRO 240853Z AUTO VRB04KT 1/2SM FG VV002 09/09 A2995 RMK AO2 LTG DSNT N RAB01E52 SLP143 6//// T00890089 56031 PNO $
KHRO 240831Z AUTO 13012KT 1/2SM -RA FG VV002 09/09 A2995 RMK AO2 LTG DSNT N AND W RAB01 T00890089 PNO $
KHRO 240753Z AUTO 13010KT 1/4SM FG VV002 08/08 A2998 RMK AO2 LTG DSNT SW AND NW RAB11E22 SLP152 T00830083 PNO $
KHRO 240713Z AUTO 12011KT 1/4SM -RA FG VV002 08/08 A3000 RMK AO2 RAB11 T00780078 PNO $
KHRO 240653Z AUTO 12012KT 1/2SM FG VV002 08/08 A3001 RMK AO2 RAE52 SLP162 T00780078 PNO $
KHRO 240553Z AUTO 11009KT 1/4SM -RA FG VV002 08/08 A3005 RMK AO2 LTG DSNT W-N RAE22B41 SLP177 6//// T00780078 10083 20078 400830061 58024 PNO $
KHRO 240522Z AUTO 11007KT 1/4SM FG VV002 08/08 A3005 RMK AO2 RAE22 T00780078 PNO $
KHRO 240514Z AUTO 09007KT 3/4SM -RA BR VV002 08/08 A3006 RMK AO2 T00780078 PNO $
KHRO 240453Z AUTO 12005KT 1SM -RA BR VV003 08/08 A3009 RMK AO2 RAB02 SLP190 T00830083 PNO $
KHRO 240438Z AUTO 08007KT 1 3/4SM -RA BR OVC002 08/08 A3009 RMK AO2 RAB02 T00830083 PNO $
KHRO 240419Z AUTO 00000KT 3SM -RA BR OVC002 08/08 A3011 RMK AO2 RAB02 T00830083 PNO $
KHRO 240411Z AUTO 05004KT 1SM RA BR VV002 08/08 A3011 RMK AO2 RAB02 T00830083 PNO $
KHRO 240353Z AUTO 06005KT 1/2SM FG VV002 08/08 A3011 RMK AO2 RAB0257E25 SLP197 T00780078 PNO $
KHRO 240345Z AUTO 24004KT 1/2SM FG VV002 08/08 A3012 RMK AO2 RAB0257E25 T00780078 PNO $
KHRO 240333Z AUTO VRB03KT 1 3/4SM BR OVC002 08/08 A3012 RMK AO2 RAB0257E25 T00780078 PNO $
KHRO 240323Z AUTO 17006KT 4SM -RA BR OVC002 08/08 A3013 RMK AO2 RAB0257 T00780078 PNO $
KHRO 240311Z AUTO VRB05KT 1SM -RA BR VV002 08/08 A3012 RMK AO2 RAB0257 T00780078 PNO $
KHRO 240253Z AUTO 00000KT 1/2SM FG VV002 08/08 A3012 RMK AO2 RAB09E19B27E43 SLP203 6//// T00780078 56021 PNO $
KHRO 240225Z AUTO 13006KT 1/2SM FG VV002 08/08 A3012 RMK AO2 RAB09E19 T00780078 PNO $
KHRO 240217Z AUTO 14007KT 1/4SM -RA FG VV002 08/08 A3013 RMK AO2 RAB09 T00780078 PNO $
KHRO 240153Z AUTO 11007KT 1/2SM FG VV002 08/08 A3013 RMK AO2 RAE26 SLP204 T00780078 PNO $
KHRO 240143Z AUTO 14007KT 1 3/4SM BR OVC002 08/08 A3014 RMK AO2 RAE26 T00780078 PNO $